Time;durP1;ratioP1;P1;durP2;ratioP2;P2;SDS_P1;SDS_P2;PMS_P1;PMS_P2;Temp;Humidity;BMP_temperature;BMP_pressure;BME280_temperature;BME280_humidity;BME280_pressure;Samples;Min_cycle;Max_cycle;Signal;HPM_P1;HPM_P2
2022/07/25 00:00:29;;;;;;;;;;;;;;;25.90;54.06;100724.59;1040588;28;607;-80
2022/07/25 00:01:20;;;;;;;;;;;;;;;25.89;53.59;100717.44;1041074;28;563;-81
2022/07/25 00:02:10;;;;;;;;;;;;;;;25.90;53.83;100721.00;1041349;28;649;-81
2022/07/25 00:03:00;;;;;;;;;;;;;;;25.89;54.13;100716.59;1044428;28;751;-81
2022/07/25 00:03:51;;;;;;;;;;;;;;;25.87;53.26;100716.78;1045488;28;636;-80
2022/07/25 00:04:41;;;;;;;;;;;;;;;25.88;53.65;100710.28;1041297;28;630;-81
2022/07/25 00:05:32;;;;;;;;;;;;;;;25.86;53.98;100712.38;1044638;28;692;-80
2022/07/25 00:06:22;;;;;;;;;;;;;;;25.89;53.62;100711.97;1040573;28;642;-81
2022/07/25 00:07:13;;;;;;;;;;;;;;;25.87;53.44;100708.59;1038603;28;606;-81
2022/07/25 00:08:03;;;;;;;;;;;;;;;25.88;53.95;100709.44;1041370;28;682;-81
2022/07/25 00:08:53;;;;;;;;;;;;;;;25.82;54.07;100702.06;1041364;28;626;-81
2022/07/25 00:09:44;;;;;;;;;;;;;;;25.83;54.27;100701.84;1041601;28;638;-81
2022/07/25 00:10:34;;;;;;;;;;;;;;;25.81;53.19;100701.22;1041481;28;634;-81
2022/07/25 00:11:25;;;;;;;;;;;;;;;25.78;54.32;100704.38;1044944;28;666;-82
2022/07/25 00:12:15;;;;;;;;;;;;;;;25.81;53.99;100701.22;1040555;28;692;-82
2022/07/25 00:13:05;;;;;;;;;;;;;;;25.84;53.90;100699.97;1037826;28;693;-83
2022/07/25 00:13:56;;;;;;;;;;;;;;;25.83;53.30;100699.13;1041484;28;654;-83
2022/07/25 00:14:47;;;;;;;;;;;;;;;25.84;53.80;100691.78;1041395;28;619;-82
2022/07/25 00:15:37;;;;;;;;;;;;;;;25.83;53.90;100693.66;1040398;28;624;-82
2022/07/25 00:16:27;;;;;;;;;;;;;;;25.83;53.87;100690.94;1041080;28;725;-83
2022/07/25 00:17:18;;;;;;;;;;;;;;;25.84;53.88;100692.63;1041175;28;662;-83
2022/07/25 00:18:08;;;;;;;;;;;;;;;25.86;53.83;100689.69;1044280;28;677;-82
2022/07/25 00:18:59;;;;;;;;;;;;;;;25.86;53.58;100685.06;1045476;28;712;-82
2022/07/25 00:19:49;;;;;;;;;;;;;;;25.84;53.61;100691.78;1041242;28;846;-81
2022/07/25 00:20:39;;;;;;;;;;;;;;;25.79;54.06;100686.09;1040899;28;649;-82
2022/07/25 00:21:30;;;;;;;;;;;;;;;25.82;53.86;100683.78;1041082;28;661;-81
2022/07/25 00:22:20;;;;;;;;;;;;;;;25.82;53.91;100678.31;1043374;28;1561;-82
2022/07/25 00:23:11;;;;;;;;;;;;;;;25.84;54.02;100678.97;1044787;28;661;-81
2022/07/25 00:24:01;;;;;;;;;;;;;;;25.82;53.74;100682.94;1044442;28;734;-82
2022/07/25 00:24:52;;;;;;;;;;;;;;;25.82;53.92;100678.31;1045054;28;645;-82
2022/07/25 00:25:42;;;;;;;;;;;;;;;25.83;54.02;100674.56;1044460;28;654;-81
2022/07/25 00:26:32;;;;;;;;;;;;;;;25.78;54.14;100671.59;1045171;28;701;-81
2022/07/25 00:27:23;;;;;;;;;;;;;;;25.80;54.14;100669.50;1045234;28;662;-81
2022/07/25 00:28:13;;;;;;;;;;;;;;;25.79;53.53;100667.84;1048285;28;583;-80
2022/07/25 00:29:04;;;;;;;;;;;;;;;25.79;54.08;100667.84;1049412;28;634;-80
2022/07/25 00:29:54;;;;;;;;;;;;;;;25.81;53.56;100671.19;1045160;28;680;-80
2022/07/25 00:30:45;;;;;;;;;;;;;;;25.78;54.14;100674.34;1045174;28;661;-80
2022/07/25 00:31:35;;;;;;;;;;;;;;;25.80;54.34;100669.50;1044413;28;654;-80
2022/07/25 00:32:26;;;;;;;;;;;;;;;25.77;54.42;100669.91;1045108;28;751;-80
2022/07/25 00:33:16;;;;;;;;;;;;;;;25.76;54.43;100672.84;1044391;28;666;-80
2022/07/25 00:34:07;;;;;;;;;;;;;;;25.77;54.04;100669.91;1045026;28;681;-80
2022/07/25 00:34:57;;;;;;;;;;;;;;;25.77;54.10;100669.91;1045130;28;657;-80
2022/07/25 00:35:48;;;;;;;;;;;;;;;25.77;54.46;100669.91;1044968;28;652;-81
2022/07/25 00:36:38;;;;;;;;;;;;;;;25.74;54.23;100669.47;1044398;28;646;-81
2022/07/25 00:37:28;;;;;;;;;;;;;;;25.73;54.53;100670.53;1045029;28;677;-81
2022/07/25 00:38:19;;;;;;;;;;;;;;;25.71;54.05;100672.59;1044880;28;1357;-81
2022/07/25 00:39:09;;;;;;;;;;;;;;;25.71;54.44;100667.16;1048310;28;641;-81
2022/07/25 00:40:00;;;;;;;;;;;;;;;25.68;54.60;100673.84;1049288;28;787;-81
2022/07/25 00:40:50;;;;;;;;;;;;;;;25.60;54.51;100674.84;1045117;28;700;-81
2022/07/25 00:41:41;;;;;;;;;;;;;;;25.45;54.46;100686.91;1040908;28;606;-81
2022/07/25 00:42:31;;;;;;;;;;;;;;;25.42;54.29;100693.63;1040932;28;637;-81
2022/07/25 00:43:21;;;;;;;;;;;;;;;25.39;54.30;100688.56;1040920;28;690;-81
2022/07/25 00:44:12;;;;;;;;;;;;;;;25.32;54.62;100687.66;1040915;28;769;-81
2022/07/25 00:45:02;;;;;;;;;;;;;;;25.24;54.86;100687.84;1041051;28;649;-81
2022/07/25 00:45:53;;;;;;;;;;;;;;;25.18;54.95;100691.34;1040923;28;709;-80
2022/07/25 00:46:43;;;;;;;;;;;;;;;25.09;55.40;100679.72;1040256;28;721;-81
2022/07/25 00:47:34;;;;;;;;;;;;;;;25.14;55.16;100677.25;1044317;28;658;-81
2022/07/25 00:48:24;;;;;;;;;;;;;;;25.17;54.91;100673.28;1045335;28;642;-81
2022/07/25 00:49:14;;;;;;;;;;;;;;;25.09;55.18;100677.00;1041360;28;638;-81
2022/07/25 00:50:05;;;;;;;;;;;;;;;24.98;55.40;100673.97;1041024;28;599;-80
2022/07/25 00:50:55;;;;;;;;;;;;;;;24.91;55.43;100677.47;1045697;28;1181;-81
2022/07/25 00:51:46;;;;;;;;;;;;;;;24.93;55.40;100680.00;1049327;28;722;-81
2022/07/25 00:52:36;;;;;;;;;;;;;;;25.01;55.13;100668.97;1049162;28;626;-81
2022/07/25 00:53:26;;;;;;;;;;;;;;;25.09;55.25;100666.09;1044209;28;820;-81
2022/07/25 00:54:17;;;;;;;;;;;;;;;25.18;54.90;100659.47;1044875;28;634;-81
2022/07/25 00:55:07;;;;;;;;;;;;;;;25.31;54.79;100663.31;1043976;28;952;-81
2022/07/25 00:55:58;;;;;;;;;;;;;;;25.25;54.77;100674.00;1044174;28;647;-80
2022/07/25 00:56:48;;;;;;;;;;;;;;;25.20;54.86;100668.28;1048358;28;586;-80
2022/07/25 00:57:39;;;;;;;;;;;;;;;25.06;55.22;100677.41;1049239;28;633;-80
2022/07/25 00:58:29;;;;;;;;;;;;;;;24.99;55.45;100673.78;1049299;28;697;-80
2022/07/25 00:59:19;;;;;;;;;;;;;;;24.83;55.81;100661.25;1049099;28;1905;-80
2022/07/25 01:00:10;;;;;;;;;;;;;;;24.92;55.71;100662.78;1049195;28;685;-80
2022/07/25 01:01:00;;;;;;;;;;;;;;;24.92;55.58;100670.13;1049149;28;642;-79
2022/07/25 01:01:51;;;;;;;;;;;;;;;25.05;55.23;100663.97;1049219;28;685;-81
2022/07/25 01:02:41;;;;;;;;;;;;;;;25.03;55.54;100664.19;1049143;28;631;-80
2022/07/25 01:03:32;;;;;;;;;;;;;;;25.07;55.41;100662.75;1049281;28;657;-81
2022/07/25 01:04:22;;;;;;;;;;;;;;;25.20;54.96;100668.28;1049412;28;826;-81
2022/07/25 01:05:13;;;;;;;;;;;;;;;25.26;55.02;100662.03;1044150;28;625;-80
2022/07/25 01:06:03;;;;;;;;;;;;;;;25.01;55.46;100668.13;1044693;28;701;-81
2022/07/25 01:06:53;;;;;;;;;;;;;;;24.85;56.05;100663.78;1048459;28;626;-81
2022/07/25 01:07:44;;;;;;;;;;;;;;;24.94;55.87;100649.00;1049036;28;700;-81
2022/07/25 01:08:34;;;;;;;;;;;;;;;25.12;55.65;100659.41;1049531;28;594;-81
2022/07/25 01:09:25;;;;;;;;;;;;;;;25.16;55.43;100660.69;1049667;28;720;-81
2022/07/25 01:10:15;;;;;;;;;;;;;;;25.11;55.52;100661.28;1049255;28;758;-80
2022/07/25 01:11:06;;;;;;;;;;;;;;;25.01;55.74;100663.53;1047559;28;1492;-79
2022/07/25 01:11:56;;;;;;;;;;;;;;;25.09;55.71;100657.91;1044174;28;672;-80
2022/07/25 01:12:47;;;;;;;;;;;;;;;24.97;56.18;100661.38;1045029;28;646;-80
2022/07/25 01:13:37;;;;;;;;;;;;;;;24.98;55.85;100654.91;1040889;28;670;-80
2022/07/25 01:14:28;;;;;;;;;;;;;;;24.80;56.52;100656.19;1040879;28;636;-80
2022/07/25 01:15:18;;;;;;;;;;;;;;;24.71;56.85;100649.22;1044865;28;677;-82
2022/07/25 01:16:08;;;;;;;;;;;;;;;24.86;56.54;100652.69;1045677;28;626;-82
2022/07/25 01:16:59;;;;;;;;;;;;;;;24.79;56.55;100653.66;1042017;28;625;-82
2022/07/25 01:17:49;;;;;;;;;;;;;;;24.74;56.69;100647.94;1041614;28;646;-81
2022/07/25 01:18:40;;;;;;;;;;;;;;;24.96;56.18;100649.63;1041711;28;613;-81
2022/07/25 01:19:30;;;;;;;;;;;;;;;25.12;55.71;100645.78;1041727;28;1889;-81
2022/07/25 01:20:20;;;;;;;;;;;;;;;25.23;55.43;100648.81;1041659;28;665;-82
2022/07/25 01:21:11;;;;;;;;;;;;;;;25.31;55.36;100649.66;1041355;28;677;-82
2022/07/25 01:22:02;;;;;;;;;;;;;;;25.33;55.25;100644.84;1041637;28;610;-81
2022/07/25 01:22:52;;;;;;;;;;;;;;;25.37;54.98;100651.59;1041652;28;861;-81
2022/07/25 01:23:43;;;;;;;;;;;;;;;25.38;55.04;100643.22;1041861;28;770;-83
2022/07/25 01:24:34;;;;;;;;;;;;;;;25.41;54.98;100647.44;1041734;28;937;-82
2022/07/25 01:25:24;;;;;;;;;;;;;;;25.39;55.02;100650.38;1041986;28;661;-82
2022/07/25 01:26:14;;;;;;;;;;;;;;;25.40;55.00;100643.88;1041674;28;606;-82
2022/07/25 01:27:05;;;;;;;;;;;;;;;25.41;54.83;100647.44;1041644;28;653;-82
2022/07/25 01:27:56;;;;;;;;;;;;;;;25.43;54.73;100645.34;1041712;28;601;-82
2022/07/25 01:28:47;;;;;;;;;;;;;;;25.43;55.03;100648.09;1041691;28;716;-82
2022/07/25 01:29:37;;;;;;;;;;;;;;;25.43;54.84;100646.19;1045510;28;642;-82
2022/07/25 01:30:28;;;;;;;;;;;;;;;25.44;54.85;100641.59;1046066;28;689;-83
2022/07/25 01:31:18;;;;;;;;;;;;;;;25.43;54.80;100637.16;1041847;28;626;-83
2022/07/25 01:32:08;;;;;;;;;;;;;;;25.43;54.95;100637.16;1041689;28;686;-83
2022/07/25 01:32:59;;;;;;;;;;;;;;;25.42;54.99;100635.50;1041645;28;649;-82
2022/07/25 01:33:49;;;;;;;;;;;;;;;25.42;54.91;100632.75;1041718;28;963;-83
2022/07/25 01:34:40;;;;;;;;;;;;;;;25.43;54.92;100634.44;1041667;28;635;-82
2022/07/25 01:35:30;;;;;;;;;;;;;;;25.42;55.12;100636.34;1041710;28;659;-82
2022/07/25 01:36:20;;;;;;;;;;;;;;;25.43;54.92;100631.72;1041701;28;640;-83
2022/07/25 01:37:11;;;;;;;;;;;;;;;25.42;54.98;100628.16;1041602;28;678;-82
2022/07/25 01:38:01;;;;;;;;;;;;;;;25.42;55.17;100640.94;1041402;28;1208;-82
2022/07/25 01:38:52;;;;;;;;;;;;;;;25.40;54.89;100632.13;1041629;28;654;-81
2022/07/25 01:39:42;;;;;;;;;;;;;;;25.40;55.14;100634.84;1041499;28;1910;-82
2022/07/25 01:40:33;;;;;;;;;;;;;;;25.38;55.17;100634.19;1041802;28;674;-82
2022/07/25 01:41:23;;;;;;;;;;;;;;;25.39;55.01;100628.53;1044833;28;1679;-82
2022/07/25 01:42:13;;;;;;;;;;;;;;;25.39;55.00;100633.16;1045363;28;694;-82
2022/07/25 01:43:04;;;;;;;;;;;;;;;25.39;55.21;100630.44;1046374;28;689;-83
2022/07/25 01:43:54;;;;;;;;;;;;;;;25.39;54.92;100633.16;1044751;28;650;-82
2022/07/25 01:44:45;;;;;;;;;;;;;;;25.36;55.28;100628.94;1049601;28;800;-83
2022/07/25 01:45:35;;;;;;;;;;;;;;;25.36;55.39;100623.47;1050534;28;650;-82
2022/07/25 01:46:25;;;;;;;;;;;;;;;25.36;55.13;100634.41;1046930;28;761;-83
2022/07/25 01:47:16;;;;;;;;;;;;;;;25.35;55.22;100624.53;1046855;28;724;-82
2022/07/25 01:48:07;;;;;;;;;;;;;;;25.35;55.23;100623.69;1048867;28;677;-82
2022/07/25 01:48:57;;;;;;;;;;;;;;;25.33;55.26;100623.03;1050211;28;673;-82
2022/07/25 01:49:48;;;;;;;;;;;;;;;25.33;55.44;100620.31;1045878;28;633;-82
2022/07/25 01:50:38;;;;;;;;;;;;;;;25.33;55.41;100617.56;1045726;28;1223;-82
2022/07/25 01:51:28;;;;;;;;;;;;;;;25.31;55.15;100625.97;1044917;28;651;-82
2022/07/25 01:52:19;;;;;;;;;;;;;;;25.33;55.42;100625.75;1044756;28;725;-82
2022/07/25 01:53:09;;;;;;;;;;;;;;;25.33;55.20;100617.56;1049613;28;657;-82
2022/07/25 01:54:00;;;;;;;;;;;;;;;25.31;55.45;100619.66;1049995;28;760;-82
2022/07/25 01:54:50;;;;;;;;;;;;;;;25.34;55.34;100613.81;1048764;28;650;-80
2022/07/25 01:55:40;;;;;;;;;;;;;;;25.32;55.23;100610.44;1049882;28;888;-83
2022/07/25 01:56:31;;;;;;;;;;;;;;;25.33;55.30;100607.50;1049982;28;690;-83
2022/07/25 01:57:21;;;;;;;;;;;;;;;25.33;55.30;100609.41;1044838;28;800;-83
2022/07/25 01:58:12;;;;;;;;;;;;;;;25.31;55.51;100603.28;1045554;28;713;-83
2022/07/25 01:59:02;;;;;;;;;;;;;;;25.31;55.49;100606.88;1049579;28;642;-83
2022/07/25 01:59:53;;;;;;;;;;;;;;;25.32;55.45;100607.72;1049750;28;662;-83
2022/07/25 02:00:43;;;;;;;;;;;;;;;25.32;55.51;100596.78;1049832;28;659;-83
2022/07/25 02:01:33;;;;;;;;;;;;;;;25.30;55.27;100594.28;1044695;28;690;-82
2022/07/25 02:02:24;;;;;;;;;;;;;;;25.31;55.36;100595.13;1045376;28;757;-83
2022/07/25 02:03:30;;;;;;;;;;;;;;;25.33;55.51;100595.75;1049638;28;665;-82
2022/07/25 02:04:20;;;;;;;;;;;;;;;25.31;55.04;100590.50;1048685;28;729;-81
2022/07/25 02:05:10;;;;;;;;;;;;;;;25.31;55.61;100595.13;1049739;28;724;-83
2022/07/25 02:06:01;;;;;;;;;;;;;;;25.30;55.60;100593.44;1049639;28;701;-82
2022/07/25 02:06:51;;;;;;;;;;;;;;;25.26;55.83;100596.56;1049747;28;578;-83
2022/07/25 02:07:42;;;;;;;;;;;;;;;25.27;55.58;100587.31;1049748;28;684;-83
2022/07/25 02:08:32;;;;;;;;;;;;;;;25.29;55.50;100589.84;1045010;28;1364;-83
2022/07/25 02:09:23;;;;;;;;;;;;;;;25.27;55.47;100581.88;1045704;28;693;-83
2022/07/25 02:10:13;;;;;;;;;;;;;;;25.27;55.60;100586.47;1045470;28;709;-82
2022/07/25 02:11:04;;;;;;;;;;;;;;;25.29;55.54;100580.81;1045585;28;622;-82
2022/07/25 02:11:54;;;;;;;;;;;;;;;25.31;55.39;100587.78;1045643;28;658;-82
2022/07/25 02:12:44;;;;;;;;;;;;;;;25.32;55.49;100588.63;1045561;28;631;-82
2022/07/25 02:13:35;;;;;;;;;;;;;;;25.30;55.32;100579.78;1045747;28;611;-82
2022/07/25 02:14:26;;;;;;;;;;;;;;;25.29;55.52;100584.41;1040532;28;677;-81
2022/07/25 02:15:16;;;;;;;;;;;;;;;25.27;55.72;100576.41;1041828;28;665;-82
2022/07/25 02:16:07;;;;;;;;;;;;;;;25.25;55.45;100589.44;1045542;28;649;-82
2022/07/25 02:16:57;;;;;;;;;;;;;;;25.23;55.80;100586.06;1045591;28;629;-82
2022/07/25 02:17:48;;;;;;;;;;;;;;;25.24;55.78;100582.31;1045618;28;661;-81
2022/07/25 02:18:38;;;;;;;;;;;;;;;25.24;55.79;100579.56;1045478;28;642;-82
2022/07/25 02:19:28;;;;;;;;;;;;;;;25.24;55.73;100582.31;1044448;28;1965;-81
2022/07/25 02:20:19;;;;;;;;;;;;;;;25.25;55.60;100577.69;1045632;28;661;-81
2022/07/25 02:21:09;;;;;;;;;;;;;;;25.24;55.68;100579.56;1044820;28;713;-82
2022/07/25 02:22:00;;;;;;;;;;;;;;;25.24;55.43;100570.53;1045650;28;626;-82
2022/07/25 02:22:50;;;;;;;;;;;;;;;25.22;55.62;100572.63;1045511;28;1110;-82
2022/07/25 02:23:41;;;;;;;;;;;;;;;25.25;55.52;100577.69;1044966;28;619;-84
2022/07/25 02:24:31;;;;;;;;;;;;;;;25.23;55.75;100572.44;1045556;28;1039;-82
2022/07/25 02:25:22;;;;;;;;;;;;;;;25.21;55.39;100568.22;1045506;28;618;-82
2022/07/25 02:26:12;;;;;;;;;;;;;;;25.24;55.46;100568.66;1045522;28;559;-82
2022/07/25 02:27:02;;;;;;;;;;;;;;;25.23;55.49;100569.69;1045477;28;709;-82
2022/07/25 02:27:53;;;;;;;;;;;;;;;25.24;55.73;100559.63;1044969;28;618;-82
2022/07/25 02:28:43;;;;;;;;;;;;;;;25.24;55.79;100554.19;1045558;28;610;-82
2022/07/25 02:29:34;;;;;;;;;;;;;;;25.23;55.83;100555.22;1045594;28;650;-82
2022/07/25 02:30:25;;;;;;;;;;;;;;;25.22;55.65;100550.81;1040598;28;681;-80
2022/07/25 02:31:15;;;;;;;;;;;;;;;25.23;55.85;100556.06;1040570;28;736;-81
2022/07/25 02:32:05;;;;;;;;;;;;;;;25.23;55.95;100550.63;1041668;28;744;-80
2022/07/25 02:32:56;;;;;;;;;;;;;;;25.21;55.88;100549.97;1045531;28;890;-81
2022/07/25 02:33:46;;;;;;;;;;;;;;;25.20;55.89;100550.16;1039989;28;642;-81
2022/07/25 02:34:37;;;;;;;;;;;;;;;25.20;55.43;100545.56;1040584;28;666;-79
2022/07/25 02:35:27;;;;;;;;;;;;;;;25.19;55.57;100543.03;1045460;28;654;-78
2022/07/25 02:36:18;;;;;;;;;;;;;;;25.18;55.92;100542.19;1045470;28;622;-78
2022/07/25 02:37:08;;;;;;;;;;;;;;;25.18;55.92;100535.88;1045579;28;656;-79
2022/07/25 02:37:58;;;;;;;;;;;;;;;25.19;55.74;100541.13;1045488;28;1225;-78
2022/07/25 02:38:49;;;;;;;;;;;;;;;25.19;55.71;100543.03;1041558;28;614;-79
2022/07/25 02:39:39;;;;;;;;;;;;;;;25.18;55.68;100538.63;1041315;28;1910;-79
2022/07/25 02:40:30;;;;;;;;;;;;;;;25.18;55.63;100538.63;1045371;28;1375;-79
2022/07/25 02:41:20;;;;;;;;;;;;;;;25.18;55.77;100536.72;1045381;28;637;-79
2022/07/25 02:42:11;;;;;;;;;;;;;;;25.19;55.53;100537.56;1045396;28;614;-79
2022/07/25 02:43:01;;;;;;;;;;;;;;;25.19;55.57;100534.84;1045482;28;661;-79
2022/07/25 02:43:51;;;;;;;;;;;;;;;25.18;55.86;100533.16;1044774;28;737;-79
2022/07/25 02:44:42;;;;;;;;;;;;;;;25.16;55.75;100527.91;1045542;28;669;-78
2022/07/25 02:45:33;;;;;;;;;;;;;;;25.18;55.98;100525.81;1044749;28;665;-79
2022/07/25 02:46:24;;;;;;;;;;;;;;;25.20;55.77;100525.63;1040389;28;626;-79
2022/07/25 02:47:14;;;;;;;;;;;;;;;25.16;56.00;100525.19;1040566;28;753;-79
2022/07/25 02:48:05;;;;;;;;;;;;;;;25.16;55.99;100530.63;1040343;28;646;-79
2022/07/25 02:48:56;;;;;;;;;;;;;;;25.15;55.97;100534.41;1041614;28;681;-79
2022/07/25 02:49:46;;;;;;;;;;;;;;;25.18;55.66;100533.16;1045441;28;649;-80
2022/07/25 02:50:36;;;;;;;;;;;;;;;25.17;55.84;100523.28;1044821;28;618;-81
2022/07/25 02:51:27;;;;;;;;;;;;;;;25.17;56.04;100526.88;1045440;28;658;-81
2022/07/25 02:52:17;;;;;;;;;;;;;;;25.17;56.02;100526.88;1046003;28;674;-81
2022/07/25 02:53:08;;;;;;;;;;;;;;;25.16;55.56;100518.88;1045970;28;618;-81
2022/07/25 02:53:58;;;;;;;;;;;;;;;25.15;55.72;100519.91;1045915;28;619;-81
2022/07/25 02:54:49;;;;;;;;;;;;;;;25.16;55.71;100519.72;1045943;28;677;-81
2022/07/25 02:55:40;;;;;;;;;;;;;;;25.17;55.61;100513.22;1046009;28;586;-81
2022/07/25 02:56:32;;;;;;;;;;;;;;;25.18;55.91;100509.44;1045987;28;633;-81
2022/07/25 02:57:22;;;;;;;;;;;;;;;25.16;55.84;100513.44;1044926;28;669;-81
2022/07/25 02:58:13;;;;;;;;;;;;;;;25.15;55.67;100517.19;1045380;28;681;-81
2022/07/25 02:59:04;;;;;;;;;;;;;;;25.13;56.04;100506.50;1040935;28;693;-81
2022/07/25 02:59:54;;;;;;;;;;;;;;;25.14;55.44;100501.88;1040916;28;1902;-82
2022/07/25 03:00:44;;;;;;;;;;;;;;;25.13;55.88;100511.94;1045259;28;662;-81
2022/07/25 03:01:35;;;;;;;;;;;;;;;25.11;55.89;100510.44;1045972;28;640;-81
2022/07/25 03:02:25;;;;;;;;;;;;;;;25.10;55.93;100506.88;1045914;28;703;-82
2022/07/25 03:03:16;;;;;;;;;;;;;;;25.09;55.97;100507.94;1041352;28;619;-81
2022/07/25 03:04:06;;;;;;;;;;;;;;;25.11;55.70;100500.38;1039952;28;666;-81
2022/07/25 03:04:57;;;;;;;;;;;;;;;25.10;55.91;100515.06;1041030;28;629;-81
2022/07/25 03:05:47;;;;;;;;;;;;;;;25.11;55.80;100510.44;1044764;28;666;-82
2022/07/25 03:06:38;;;;;;;;;;;;;;;25.09;56.07;100513.38;1046034;28;693;-81
2022/07/25 03:07:28;;;;;;;;;;;;;;;25.09;55.89;100512.53;1045822;28;689;-81
2022/07/25 03:08:18;;;;;;;;;;;;;;;25.10;56.09;100506.03;1041265;28;1580;-81
2022/07/25 03:09:09;;;;;;;;;;;;;;;25.08;56.03;100506.25;1041337;28;594;-81
2022/07/25 03:09:59;;;;;;;;;;;;;;;25.10;55.78;100506.88;1045348;28;622;-82
2022/07/25 03:10:50;;;;;;;;;;;;;;;25.11;55.88;100507.72;1044303;28;630;-83
2022/07/25 03:11:40;;;;;;;;;;;;;;;25.09;56.19;100507.94;1045394;28;634;-83
2022/07/25 03:12:33;;;;;;;;;;;;;;;25.08;55.76;100506.25;1045303;28;630;-83
2022/07/25 03:13:24;;;;;;;;;;;;;;;25.06;55.78;100505.63;1045340;28;736;-83
2022/07/25 03:14:15;;;;;;;;;;;;;;;25.06;56.11;100508.34;1045433;28;686;-80
2022/07/25 03:15:05;;;;;;;;;;;;;;;25.03;56.20;100508.75;1040405;28;666;-80
2022/07/25 03:15:56;;;;;;;;;;;;;;;25.05;55.87;100505.81;1040340;28;639;-80
2022/07/25 03:16:46;;;;;;;;;;;;;;;25.05;55.80;100500.38;1041309;28;1564;-80
2022/07/25 03:17:36;;;;;;;;;;;;;;;25.06;56.42;100494.72;1040171;28;603;-82
2022/07/25 03:18:27;;;;;;;;;;;;;;;25.07;55.79;100495.56;1041500;28;689;-81
2022/07/25 03:19:17;;;;;;;;;;;;;;;25.07;55.97;100493.69;1045349;28;649;-81
2022/07/25 03:20:08;;;;;;;;;;;;;;;25.06;55.55;100496.59;1045203;28;947;-81
2022/07/25 03:20:58;;;;;;;;;;;;;;;25.05;55.98;100490.31;1045620;28;721;-83
2022/07/25 03:21:48;;;;;;;;;;;;;;;25.07;55.75;100501.88;1045362;28;709;-82
2022/07/25 03:22:39;;;;;;;;;;;;;;;25.06;56.23;100491.16;1045422;28;657;-83
2022/07/25 03:23:29;;;;;;;;;;;;;;;25.02;55.79;100487.97;1044592;28;768;-82
2022/07/25 03:24:20;;;;;;;;;;;;;;;25.01;55.72;100497.22;1045280;28;758;-82
2022/07/25 03:25:10;;;;;;;;;;;;;;;25.02;55.86;100498.88;1044665;28;697;-83
2022/07/25 03:26:01;;;;;;;;;;;;;;;25.04;55.97;100485.06;1040421;28;682;-83
2022/07/25 03:26:51;;;;;;;;;;;;;;;25.03;55.87;100489.66;1041534;28;586;-82
2022/07/25 03:27:42;;;;;;;;;;;;;;;25.00;55.97;100486.50;1045368;28;678;-82
2022/07/25 03:28:32;;;;;;;;;;;;;;;25.01;55.97;100491.75;1041306;28;989;-83
2022/07/25 03:29:22;;;;;;;;;;;;;;;25.02;56.13;100492.59;1041138;28;653;-80
2022/07/25 03:30:13;;;;;;;;;;;;;;;25.02;55.92;100487.97;1041205;28;721;-80
2022/07/25 03:31:03;;;;;;;;;;;;;;;25.02;55.79;100485.25;1045021;28;662;-79
2022/07/25 03:31:54;;;;;;;;;;;;;;;25.02;56.09;100485.25;1045259;28;662;-80
2022/07/25 03:32:45;;;;;;;;;;;;;;;25.02;55.94;100479.81;1041256;28;633;-80
2022/07/25 03:33:35;;;;;;;;;;;;;;;25.02;55.52;100487.97;1041206;28;732;-79
2022/07/25 03:34:26;;;;;;;;;;;;;;;25.02;55.49;100484.41;1041121;28;778;-80
2022/07/25 03:35:16;;;;;;;;;;;;;;;25.01;55.77;100489.03;1041086;28;685;-79
2022/07/25 03:36:06;;;;;;;;;;;;;;;25.01;55.64;100482.72;1044950;28;678;-79
2022/07/25 03:36:57;;;;;;;;;;;;;;;24.99;55.71;100490.28;1045510;28;846;-80
2022/07/25 03:37:47;;;;;;;;;;;;;;;24.98;55.51;100489.44;1041517;28;677;-79
2022/07/25 03:38:38;;;;;;;;;;;;;;;24.98;55.55;100494.88;1041133;28;729;-79
2022/07/25 03:39:28;;;;;;;;;;;;;;;24.98;55.90;100492.16;1041371;28;1906;-80
2022/07/25 03:40:19;;;;;;;;;;;;;;;24.95;55.71;100495.28;1041191;28;630;-79
2022/07/25 03:41:09;;;;;;;;;;;;;;;24.97;55.87;100489.63;1041379;28;583;-79
2022/07/25 03:42:00;;;;;;;;;;;;;;;24.97;55.60;100493.19;1042014;28;846;-79
2022/07/25 03:42:50;;;;;;;;;;;;;;;24.98;55.82;100491.31;1042256;28;669;-80
2022/07/25 03:43:41;;;;;;;;;;;;;;;24.97;56.01;100492.34;1041275;28;622;-79
2022/07/25 03:44:31;;;;;;;;;;;;;;;24.95;56.00;100488.97;1041214;28;721;-80
2022/07/25 03:45:22;;;;;;;;;;;;;;;24.95;55.81;100498.00;1041031;28;685;-80
2022/07/25 03:46:12;;;;;;;;;;;;;;;24.95;55.91;100495.28;1040794;28;753;-80
2022/07/25 03:47:02;;;;;;;;;;;;;;;24.95;56.01;100500.72;1044963;28;689;-80
2022/07/25 03:47:53;;;;;;;;;;;;;;;24.93;56.00;100492.72;1047530;28;1651;-80
2022/07/25 03:48:43;;;;;;;;;;;;;;;24.96;55.61;100488.78;1045546;28;614;-80
2022/07/25 03:49:34;;;;;;;;;;;;;;;24.97;55.62;100487.75;1044971;28;1552;-80
2022/07/25 03:50:25;;;;;;;;;;;;;;;24.96;55.60;100488.78;1045231;28;623;-80
2022/07/25 03:51:15;;;;;;;;;;;;;;;24.94;55.70;100482.69;1041121;28;697;-80
2022/07/25 03:52:06;;;;;;;;;;;;;;;24.93;55.88;100479.09;1040980;28;641;-81
2022/07/25 03:52:56;;;;;;;;;;;;;;;24.93;56.00;100479.09;1041209;28;655;-80
2022/07/25 03:54:02;;;;;;;;;;;;;;;24.93;55.80;100470.06;1041013;28;677;-80
2022/07/25 03:54:52;;;;;;;;;;;;;;;24.92;55.58;100471.94;1041033;28;701;-80
2022/07/25 03:55:42;;;;;;;;;;;;;;;24.92;55.78;100468.38;1041036;28;662;-80
2022/07/25 03:56:33;;;;;;;;;;;;;;;24.94;55.86;100482.69;1040990;28;706;-80
2022/07/25 03:57:23;;;;;;;;;;;;;;;24.91;55.68;100481.16;1039533;28;705;-80
2022/07/25 03:58:14;;;;;;;;;;;;;;;24.91;55.64;100477.59;1039720;28;689;-80
2022/07/25 03:59:04;;;;;;;;;;;;;;;24.92;55.82;100482.00;1040798;28;654;-81
2022/07/25 03:59:55;;;;;;;;;;;;;;;24.91;56.12;100480.31;1040544;28;1947;-81
2022/07/25 04:00:47;;;;;;;;;;;;;;;24.88;55.52;100488.94;1040525;28;650;-80
2022/07/25 04:01:37;;;;;;;;;;;;;;;24.87;55.99;100488.09;1041010;28;642;-81
2022/07/25 04:02:28;;;;;;;;;;;;;;;24.88;56.17;100480.75;1039460;28;726;-80
2022/07/25 04:03:18;;;;;;;;;;;;;;;24.86;55.95;100480.13;1040793;28;666;-80
2022/07/25 04:04:09;;;;;;;;;;;;;;;24.86;55.97;100482.84;1041029;28;689;-80
2022/07/25 04:04:59;;;;;;;;;;;;;;;24.85;56.12;100483.88;1041198;28;661;-80
2022/07/25 04:05:49;;;;;;;;;;;;;;;24.86;56.25;100480.94;1040419;28;611;-81
2022/07/25 04:06:40;;;;;;;;;;;;;;;24.89;55.75;100490.63;1040670;28;788;-80
2022/07/25 04:07:30;;;;;;;;;;;;;;;24.89;55.79;100485.16;1040453;28;1572;-81
2022/07/25 04:08:21;;;;;;;;;;;;;;;24.77;56.32;100486.75;1045176;28;602;-80
2022/07/25 04:09:11;;;;;;;;;;;;;;;24.69;56.30;100490.50;1040170;28;682;-80
2022/07/25 04:10:02;;;;;;;;;;;;;;;24.61;56.60;100487.06;1041414;28;610;-80
2022/07/25 04:10:52;;;;;;;;;;;;;;;24.73;56.43;100488.19;1045174;28;660;-80
2022/07/25 04:11:42;;;;;;;;;;;;;;;24.76;56.44;100488.63;1044458;28;623;-84
2022/07/25 04:12:33;;;;;;;;;;;;;;;24.60;56.46;100488.94;1045202;28;622;-84
2022/07/25 04:13:23;;;;;;;;;;;;;;;24.60;57.07;100488.09;1044582;28;611;-84
2022/07/25 04:14:14;;;;;;;;;;;;;;;24.46;57.02;100489.91;1045261;28;665;-81
2022/07/25 04:15:04;;;;;;;;;;;;;;;24.53;56.83;100488.09;1045144;28;1309;-81
2022/07/25 04:15:55;;;;;;;;;;;;;;;24.54;56.50;100489.78;1040873;28;726;-81
2022/07/25 04:16:45;;;;;;;;;;;;;;;24.60;56.53;100491.69;1041033;28;688;-81
2022/07/25 04:17:36;;;;;;;;;;;;;;;24.65;56.55;100494.66;1040942;28;1044;-81
2022/07/25 04:18:26;;;;;;;;;;;;;;;24.56;56.70;100493.09;1040964;28;686;-81
2022/07/25 04:19:16;;;;;;;;;;;;;;;24.59;56.72;100498.16;1041132;28;635;-80
2022/07/25 04:20:07;;;;;;;;;;;;;;;24.49;56.99;100495.81;1040951;28;614;-81
2022/07/25 04:20:57;;;;;;;;;;;;;;;24.49;56.95;100500.41;1040994;28;657;-81
2022/07/25 04:21:48;;;;;;;;;;;;;;;24.33;57.35;100501.56;1044676;28;571;-81
2022/07/25 04:22:38;;;;;;;;;;;;;;;24.37;57.06;100496.53;1045257;28;802;-81
2022/07/25 04:23:29;;;;;;;;;;;;;;;24.30;57.44;100496.50;1041068;28;688;-81
2022/07/25 04:24:19;;;;;;;;;;;;;;;24.23;57.56;100498.28;1041020;28;660;-81
2022/07/25 04:25:10;;;;;;;;;;;;;;;24.36;56.71;100490.28;1041976;28;1349;-81
2022/07/25 04:26:00;;;;;;;;;;;;;;;24.36;57.28;100492.16;1045048;28;625;-81